Time;durP1;ratioP1;P1;durP2;ratioP2;P2;SDS_P1;SDS_P2;PMS_P1;PMS_P2;Temp;Humidity;BMP_temperature;BMP_pressure;BME280_temperature;BME280_humidity;BME280_pressure;Samples;Min_cycle;Max_cycle;Signal;HPM_P1;HPM_P2
2023/09/18 00:00:05;;;;;;;81.45;49.08;;;;;;;18.86;100.00;100742.53;5035373;28;20029;-88
2023/09/18 00:02:33;;;;;;;87.55;53.70;;;;;;;18.86;100.00;100747.94;5018817;28;20050;-88
2023/09/18 00:04:59;;;;;;;78.07;49.15;;;;;;;18.84;100.00;100739.13;5003678;28;20149;-88
2023/09/18 00:07:27;;;;;;;87.18;51.05;;;;;;;18.85;100.00;100734.59;5017584;28;21155;-89
2023/09/18 00:09:53;;;;;;;81.13;50.80;;;;;;;18.82;100.00;100729.47;5016339;28;20037;-88
2023/09/18 00:12:18;;;;;;;84.97;51.55;;;;;;;18.83;100.00;100723.94;5013075;28;20034;-88
2023/09/18 00:14:48;;;;;;;85.47;50.67;;;;;;;18.78;100.00;100730.81;5025398;28;20147;-88
2023/09/18 00:17:13;;;;;;;79.38;49.85;;;;;;;18.80;100.00;100726.94;5020866;28;20026;-88
2023/09/18 00:19:39;;;;;;;71.57;46.33;;;;;;;18.79;100.00;100722.53;4997705;28;20268;-88
2023/09/18 00:22:06;;;;;;;81.05;49.30;;;;;;;18.80;100.00;100704.47;4996745;28;20037;-88
2023/09/18 00:24:31;;;;;;;88.45;54.90;;;;;;;18.75;100.00;100699.53;5014263;28;20075;-89
2023/09/18 00:26:57;;;;;;;81.85;53.30;;;;;;;18.74;100.00;100691.59;5033033;28;21094;-88
2023/09/18 00:29:23;;;;;;;84.55;49.80;;;;;;;18.75;100.00;100696.84;5014364;28;20034;-89
2023/09/18 00:31:48;;;;;;;73.13;48.13;;;;;;;18.72;100.00;100677.38;5014650;28;20387;-88
2023/09/18 00:34:15;;;;;;;80.30;50.33;;;;;;;18.68;100.00;100673.28;5012451;28;20042;-88
2023/09/18 00:36:40;;;;;;;89.78;52.92;;;;;;;18.75;100.00;100683.31;4999023;28;20045;-88
2023/09/18 00:39:06;;;;;;;75.05;47.95;;;;;;;18.78;100.00;100674.91;5016350;28;20061;-89
2023/09/18 00:41:32;;;;;;;78.85;51.45;;;;;;;18.73;100.00;100679.09;5016633;28;20072;-88
2023/09/18 00:43:57;;;;;;;70.85;46.78;;;;;;;18.76;100.00;100674.22;5016612;28;20397;-89
2023/09/18 00:46:24;;;;;;;63.13;42.40;;;;;;;18.80;100.00;100675.59;5008842;28;20383;-89
2023/09/18 00:48:50;;;;;;;85.45;52.22;;;;;;;18.83;100.00;100660.94;5036273;28;20069;-89
2023/09/18 00:51:17;;;;;;;88.18;51.60;;;;;;;18.81;100.00;100646.72;5014609;28;20129;-89
2023/09/18 00:53:48;;;;;;;78.38;49.17;;;;;;;18.79;100.00;100640.66;5007547;28;20065;-89
2023/09/18 00:56:15;;;;;;;;;;;;;;;18.77;100.00;100626.44;5031326;28;20034;-88
2023/09/18 00:58:40;;;;;;;66.75;44.17;;;;;;;18.74;100.00;100634.84;5011480;28;19917;-89
2023/09/18 01:01:08;;;;;;;67.40;45.83;;;;;;;18.69;100.00;100629.06;4999578;28;20084;-88
2023/09/18 01:03:34;;;;;;;65.18;43.90;;;;;;;18.71;100.00;100633.31;5011135;28;20034;-89
2023/09/18 01:06:00;;;;;;;66.13;43.78;;;;;;;18.69;100.00;100629.91;4999698;28;20030;-89
2023/09/18 01:08:25;;;;;;;69.03;45.88;;;;;;;18.71;100.00;100625.19;5010679;28;20037;-89
2023/09/18 01:11:14;;;;;;;61.85;41.90;;;;;;;18.77;100.00;100619.16;4999571;28;20055;-88
2023/09/18 01:14:23;;;;;;;69.28;44.90;;;;;;;18.80;100.00;100618.88;5010548;28;20096;-88
2023/09/18 01:16:56;;;;;;;58.28;40.97;;;;;;;18.82;100.00;100605.19;4925792;28;20087;-89
2023/09/18 01:19:45;;;;;;;61.15;42.08;;;;;;;18.80;100.00;100602.66;4930090;28;20223;-89
2023/09/18 01:22:19;;;;;;;61.90;41.42;;;;;;;18.80;100.00;100597.25;4947038;28;20148;-89
2023/09/18 01:24:49;;;;;;;64.40;44.10;;;;;;;18.75;100.00;100596.88;4909814;29;20052;-89
2023/09/18 01:27:17;;;;;;;69.47;46.15;;;;;;;18.77;100.00;100585.91;4927247;28;20043;-89
2023/09/18 01:29:44;;;;;;;65.35;42.90;;;;;;;18.78;100.00;100576.81;4918923;28;20521;-89
2023/09/18 01:32:09;;;;;;;65.10;43.80;;;;;;;18.82;100.00;100564.66;4950711;28;20082;-88
2023/09/18 01:34:41;;;;;;;71.35;46.53;;;;;;;18.77;100.00;100559.72;4929574;29;20794;-88
2023/09/18 01:37:10;;;;;;;73.72;47.33;;;;;;;18.76;100.00;100555.34;4931446;28;20075;-88
2023/09/18 01:39:36;;;;;;;68.00;42.10;;;;;;;18.72;100.00;100548.53;4946932;28;20195;-89
2023/09/18 01:42:07;;;;;;;68.00;43.60;;;;;;;18.76;100.00;100555.34;4945482;28;20115;-88
2023/09/18 01:44:33;;;;;;;60.37;42.67;;;;;;;18.69;100.00;100539.94;4925020;28;20143;-89
2023/09/18 01:47:03;;;;;;;54.00;39.75;;;;;;;18.73;100.00;100541.31;4930226;28;20518;-89
2023/09/18 01:49:29;;;;;;;54.55;38.47;;;;;;;18.75;100.00;100545.53;4935031;28;20052;-89
2023/09/18 01:51:58;;;;;;;61.40;38.75;;;;;;;18.76;100.00;100539.13;5014558;28;20492;-88
2023/09/18 01:54:25;;;;;;;56.97;37.92;;;;;;;18.79;100.00;100535.28;5011805;28;20030;-88
2023/09/18 01:56:54;;;;;;;63.63;40.13;;;;;;;18.88;100.00;100535.19;5009414;28;20034;-89
2023/09/18 01:59:21;;;;;;;51.40;37.38;;;;;;;18.85;100.00;100530.09;5013694;28;20064;-88
2023/09/18 02:01:47;;;;;;;64.57;40.30;;;;;;;18.78;100.00;100523.63;4996267;28;20062;-88
2023/09/18 02:04:13;;;;;;;46.88;34.42;;;;;;;18.86;100.00;100523.66;5012363;28;20281;-90
2023/09/18 02:06:40;;;;;;;48.53;33.75;;;;;;;18.95;100.00;100521.03;4994847;28;20582;-88
2023/09/18 02:09:10;;;;;;;50.65;35.13;;;;;;;18.96;100.00;100517.31;5009296;28;20030;-89
2023/09/18 02:11:38;;;;;;;45.83;32.63;;;;;;;18.94;100.00;100512.06;5029757;28;20406;-89
2023/09/18 02:14:05;;;;;;;51.63;33.83;;;;;;;19.00;100.00;100503.31;5013105;28;20045;-88
2023/09/18 02:16:40;;;;;;;54.03;34.13;;;;;;;18.97;100.00;100491.97;4994526;28;20108;-90
2023/09/18 02:19:08;;;;;;;54.45;34.65;;;;;;;18.97;100.00;100495.53;5010586;28;20050;-88
2023/09/18 02:21:34;;;;;;;54.95;36.35;;;;;;;19.00;100.00;100492.50;4993991;28;20044;-88
2023/09/18 02:24:00;;;;;;;49.17;33.72;;;;;;;18.97;100.00;100481.16;5026543;28;20038;-89
2023/09/18 02:26:29;;;;;;;57.45;35.17;;;;;;;18.97;100.00;100490.13;5020173;28;20033;-88
2023/09/18 02:28:57;;;;;;;51.53;33.20;;;;;;;18.96;100.00;100491.13;5011152;28;20048;-89
2023/09/18 02:31:23;;;;;;;44.70;29.38;;;;;;;18.94;100.00;100487.75;5011364;28;20065;-89
2023/09/18 02:33:49;;;;;;;44.67;30.58;;;;;;;18.96;100.00;100482.19;5011520;28;20083;-89
2023/09/18 02:36:15;;;;;;;44.22;28.13;;;;;;;19.02;100.00;100470.72;5011224;28;20037;-89
2023/09/18 02:38:41;;;;;;;34.78;22.73;;;;;;;19.05;100.00;100456.91;5005983;28;20038;-89
2023/09/18 02:41:07;;;;;;;37.65;20.75;;;;;;;19.12;100.00;100449.81;5002936;28;20030;-88
2023/09/18 02:43:33;;;;;;;28.33;19.88;;;;;;;19.24;100.00;100436.88;4992194;28;20064;-89
2023/09/18 02:45:58;;;;;;;28.52;18.10;;;;;;;19.30;100.00;100414.59;4999709;28;20037;-88
2023/09/18 02:48:24;;;;;;;33.03;18.80;;;;;;;19.39;100.00;100403.63;5000449;28;20033;-89
2023/09/18 02:50:50;;;;;;;36.28;18.25;;;;;;;19.35;100.00;100387.91;4991326;28;20041;-88
2023/09/18 02:53:22;;;;;;;29.73;18.70;;;;;;;19.45;100.00;100387.75;4991469;28;20041;-88
2023/09/18 02:55:50;;;;;;;31.25;18.17;;;;;;;19.40;100.00;100370.16;4991443;28;20034;-88
2023/09/18 02:58:16;;;;;;;26.85;17.55;;;;;;;19.49;100.00;100364.78;5008969;28;20025;-88
2023/09/18 03:00:44;;;;;;;32.85;18.15;;;;;;;19.40;100.00;100353.94;5009731;28;20029;-88
2023/09/18 03:03:10;;;;;;;29.63;17.38;;;;;;;19.36;100.00;100349.03;5010530;28;20065;-88
2023/09/18 03:05:36;;;;;;;25.95;16.42;;;;;;;19.46;100.00;100340.78;5010634;28;20165;-89
2023/09/18 03:08:03;;;;;;;27.90;17.83;;;;;;;19.40;100.00;100335.00;5028664;28;20033;-88
2023/09/18 03:10:34;;;;;;;27.15;17.45;;;;;;;19.46;100.00;100319.13;5009927;28;20041;-88
2023/09/18 03:13:00;;;;;;;30.95;17.65;;;;;;;19.49;100.00;100305.28;5009699;28;20034;-89
2023/09/18 03:15:25;;;;;;;28.15;18.13;;;;;;;19.42;100.00;100307.81;5009720;28;20117;-88
2023/09/18 03:17:59;;;;;;;25.63;17.00;;;;;;;19.39;100.00;100300.03;5007989;28;20054;-89
2023/09/18 03:20:28;;;;;;;26.48;17.35;;;;;;;19.48;100.00;100295.47;4999828;28;20040;-88
2023/09/18 03:22:56;;;;;;;27.55;17.15;;;;;;;19.36;100.00;100284.97;5006288;28;20546;-88
2023/09/18 03:25:23;;;;;;;27.13;17.02;;;;;;;19.37;100.00;100285.81;4998468;28;20512;-88
2023/09/18 03:27:51;;;;;;;29.98;16.80;;;;;;;19.36;100.00;100284.13;5026617;28;20033;-90
2023/09/18 03:30:18;;;;;;;27.35;16.88;;;;;;;19.45;100.00;100269.63;5036554;28;20030;-90
2023/09/18 03:32:45;;;;;;;25.85;17.55;;;;;;;19.35;100.00;100269.78;5007966;28;20042;-89
2023/09/18 03:35:18;;;;;;;30.17;17.45;;;;;;;19.38;100.00;100265.91;4989264;28;20042;-88
2023/09/18 03:37:49;;;;;;;24.95;16.65;;;;;;;19.43;100.00;100266.25;5009309;28;20041;-89
2023/09/18 03:40:17;;;;;;;28.30;17.10;;;;;;;19.41;100.00;100252.88;5027430;28;20029;-88
2023/09/18 03:42:43;;;;;;;28.15;17.52;;;;;;;19.47;100.00;100255.91;5008921;28;20112;-89
2023/09/18 03:45:09;;;;;;;25.33;17.15;;;;;;;19.48;100.00;100257.59;5003750;28;20045;-89
2023/09/18 03:47:35;;;;;;;27.23;16.17;;;;;;;19.47;100.00;100255.91;5002355;28;20034;-88
2023/09/18 03:50:02;;;;;;;26.38;14.25;;;;;;;19.60;100.00;100250.88;5011120;28;20029;-89
2023/09/18 03:52:29;;;;;;;22.50;12.98;;;;;;;19.65;100.00;100251.22;4991192;28;20492;-88
2023/09/18 03:54:55;;;;;;;19.70;13.05;;;;;;;19.73;100.00;100242.22;4990102;28;20121;-89
2023/09/18 03:57:22;;;;;;;21.60;14.80;;;;;;;19.67;100.00;100241.91;5028719;28;20038;-88
2023/09/18 03:59:48;;;;;;;26.80;14.57;;;;;;;19.71;100.00;100263.22;5010235;28;20033;-89
2023/09/18 04:02:13;;;;;;;27.90;14.43;;;;;;;19.81;100.00;100261.16;5004677;28;20034;-89
2023/09/18 04:04:40;;;;;;;26.20;15.18;;;;;;;19.81;100.00;100251.19;5010294;28;20053;-88
2023/09/18 04:07:10;;;;;;;23.58;15.15;;;;;;;19.82;100.00;100266.41;5023055;28;20556;-89
2023/09/18 04:09:35;;;;;;;24.13;14.77;;;;;;;19.86;100.00;100272.31;5028419;28;20044;-89
2023/09/18 04:12:07;;;;;;;26.73;13.55;;;;;;;19.84;100.00;100277.91;5010783;28;20026;-89
2023/09/18 04:14:33;;;;;;;29.20;14.45;;;;;;;19.84;100.00;100272.50;5023994;28;20045;-89
2023/09/18 04:17:00;;;;;;;27.23;14.43;;;;;;;19.83;100.00;100261.84;4991052;28;20034;-88
2023/09/18 04:19:26;;;;;;;26.38;13.52;;;;;;;19.79;100.00;100247.81;5009547;28;20042;-88
2023/09/18 04:21:52;;;;;;;23.58;15.10;;;;;;;19.79;100.00;100247.81;4990963;28;20045;-89
2023/09/18 04:24:18;;;;;;;25.52;14.55;;;;;;;19.80;100.00;100246.81;5003643;28;20042;-90
2023/09/18 04:26:44;;;;;;;23.67;14.93;;;;;;;19.79;100.00;100255.09;5023404;28;20070;-89
2023/09/18 04:29:12;;;;;;;24.55;14.43;;;;;;;19.79;100.00;100246.97;4992875;28;20040;-89
2023/09/18 04:31:40;;;;;;;27.55;15.20;;;;;;;19.78;100.00;100248.84;5023618;28;20041;-89
2023/09/18 04:34:06;;;;;;;26.92;15.00;;;;;;;19.82;100.00;100244.75;4993941;28;20026;-88
2023/09/18 04:36:33;;;;;;;18.42;13.82;;;;;;;19.81;100.00;100232.25;5008984;28;20030;-90
2023/09/18 04:38:59;;;;;;;24.83;15.43;;;;;;;19.73;100.00;100224.16;5009225;28;20034;-89
2023/09/18 04:41:24;;;;;;;36.15;14.70;;;;;;;19.72;100.00;100221.59;4993624;28;20037;-89
2023/09/18 04:43:52;;;;;;;29.23;15.88;;;;;;;19.69;100.00;100213.84;4993493;28;20048;-90
2023/09/18 04:46:18;;;;;;;25.23;15.30;;;;;;;19.66;100.00;100212.31;5030787;28;20052;-90
2023/09/18 04:48:44;;;;;;;26.20;14.60;;;;;;;19.64;100.00;100200.84;4998129;28;20030;-89
2023/09/18 04:51:10;;;;;;;27.27;14.82;;;;;;;19.65;100.00;100213.34;4998723;28;20038;-89
2023/09/18 04:53:35;;;;;;;22.48;14.50;;;;;;;19.61;100.00;100212.00;4994902;28;20049;-89
2023/09/18 04:56:03;;;;;;;24.50;14.35;;;;;;;19.62;100.00;100210.97;5001548;28;20048;-89
2023/09/18 04:58:30;;;;;;;22.63;13.95;;;;;;;19.66;100.00;100215.88;4997590;28;20037;-89
2023/09/18 05:00:57;;;;;;;25.33;13.57;;;;;;;19.66;100.00;100217.72;5007206;28;20037;-88
2023/09/18 05:03:23;;;;;;;27.40;13.88;;;;;;;19.64;100.00;100215.22;5027450;28;20145;-89
2023/09/18 05:05:49;;;;;;;27.10;15.13;;;;;;;19.61;100.00;100230.94;5005456;28;20030;-89
2023/09/18 05:08:15;;;;;;;26.23;13.07;;;;;;;19.65;100.00;100238.53;4988446;28;20448;-90
2023/09/18 05:10:40;;;;;;;24.40;12.35;;;;;;;19.73;100.00;100237.69;5005842;28;20041;-88
2023/09/18 05:13:06;;;;;;;22.00;10.95;;;;;;;19.81;100.00;100237.66;5012467;28;20049;-89
2023/09/18 05:15:33;;;;;;;21.55;12.05;;;;;;;19.86;100.00;100210.09;4996179;28;20030;-88
2023/09/18 05:18:00;;;;;;;19.45;12.40;;;;;;;19.86;100.00;100207.38;5011273;28;20050;-89
2023/09/18 05:20:30;;;;;;;23.33;12.07;;;;;;;19.91;100.00;100208.53;5027570;28;20034;-88
2023/09/18 05:22:57;;;;;;;22.52;12.93;;;;;;;19.92;100.00;100203.97;5007285;28;20038;-88
2023/09/18 05:25:33;;;;;;;21.40;13.40;;;;;;;19.90;100.00;100204.16;5012179;28;20029;-89
2023/09/18 05:28:00;;;;;;;21.92;13.25;;;;;;;19.89;100.00;100193.50;4987838;28;20034;-89
2023/09/18 05:30:32;;;;;;;21.70;12.85;;;;;;;19.82;100.00;100182.53;5028434;28;20038;-88
2023/09/18 05:33:05;;;;;;;24.50;13.60;;;;;;;19.82;100.00;100197.91;4993002;28;20038;-89
2023/09/18 05:35:57;;;;;;;25.92;13.68;;;;;;;19.90;100.00;100209.56;5032215;28;20034;-88
2023/09/18 05:38:23;;;;;;;22.15;13.93;;;;;;;19.85;100.00;100217.38;5012423;28;20077;-90
2023/09/18 05:40:48;;;;;;;21.88;13.23;;;;;;;19.89;100.00;100224.13;5013886;28;20042;-90
2023/09/18 05:43:15;;;;;;;24.05;13.70;;;;;;;19.76;100.00;100236.50;5013335;28;20045;-90
2023/09/18 05:45:40;;;;;;;30.45;15.40;;;;;;;19.75;100.00;100254.59;4998827;28;20070;-91
2023/09/18 05:48:07;;;;;;;29.10;15.75;;;;;;;19.75;100.00;100268.13;4999140;28;20438;-90
2023/09/18 05:50:35;;;;;;;26.83;13.95;;;;;;;19.85;100.00;100274.19;5014070;28;20117;-91
2023/09/18 05:53:03;;;;;;;25.60;14.80;;;;;;;19.72;100.00;100273.84;5013469;28;20034;-89
2023/09/18 05:55:33;;;;;;;22.13;13.75;;;;;;;19.87;100.00;100301.91;5029774;28;20080;-91
2023/09/18 05:58:00;;;;;;;25.25;13.20;;;;;;;19.91;100.00;100305.97;4997750;28;20073;-90
2023/09/18 06:00:32;;;;;;;30.55;15.07;;;;;;;19.88;100.00;100292.81;4997895;28;20026;-90
2023/09/18 06:02:58;;;;;;;28.73;15.63;;;;;;;19.93;100.00;100305.81;4998199;28;20044;-90
2023/09/18 06:05:24;;;;;;;22.50;13.15;;;;;;;19.94;100.00;100315.63;5014218;28;20054;-90
2023/09/18 06:07:51;;;;;;;22.35;13.70;;;;;;;20.00;100.00;100320.34;4987168;28;21106;-91
2023/09/18 06:10:17;;;;;;;21.50;13.07;;;;;;;20.03;100.00;100324.56;4998422;28;20122;-92
2023/09/18 06:12:45;;;;;;;18.35;13.85;;;;;;;20.02;100.00;100331.00;4999725;28;20026;-90
2023/09/18 06:15:11;;;;;;;18.85;12.43;;;;;;;20.05;100.00;100326.09;5015679;28;20061;-90
2023/09/18 06:17:42;;;;;;;19.27;12.60;;;;;;;20.07;100.00;100331.31;5014947;28;20551;-92
2023/09/18 06:20:15;;;;;;;23.40;13.05;;;;;;;20.11;100.00;100321.84;5015986;28;20030;-89
2023/09/18 06:22:41;;;;;;;22.20;13.20;;;;;;;20.09;100.00;100321.19;5013603;28;20034;-91
2023/09/18 06:25:10;;;;;;;28.75;14.10;;;;;;;20.08;100.00;100314.94;5007089;28;20041;-91
2023/09/18 06:27:36;;;;;;;23.25;13.38;;;;;;;20.12;100.00;100299.16;5015894;28;20519;-91
2023/09/18 06:30:03;;;;;;;24.20;11.45;;;;;;;20.20;100.00;100293.75;5016268;28;20108;-91
2023/09/18 06:32:29;;;;;;;27.10;13.23;;;;;;;20.21;100.00;100295.44;5021269;28;20491;-90
2023/09/18 06:34:57;;;;;;;21.52;13.27;;;;;;;20.28;100.00;100301.88;4999170;28;20053;-90
2023/09/18 06:37:24;;;;;;;26.65;13.50;;;;;;;20.35;100.00;100302.00;5025430;28;20092;-90
2023/09/18 06:39:49;;;;;;;23.85;12.38;;;;;;;20.43;100.00;100294.72;5030237;28;20030;-91
2023/09/18 06:42:15;;;;;;;22.83;13.38;;;;;;;20.42;100.00;100292.16;5032686;28;20041;-89
2023/09/18 06:44:41;;;;;;;24.38;13.73;;;;;;;20.40;100.00;100284.22;5014781;28;20053;-90
2023/09/18 06:47:10;;;;;;;24.63;12.27;;;;;;;20.39;100.00;100292.53;4993663;28;20033;-91
2023/09/18 06:49:35;;;;;;;25.80;13.35;;;;;;;20.38;100.00;100297.09;5006577;28;20128;-91
2023/09/18 06:52:01;;;;;;;21.65;11.75;;;;;;;20.34;100.00;100301.16;4985581;28;20093;-91
2023/09/18 06:54:27;;;;;;;20.13;12.65;;;;;;;20.35;100.00;100302.84;5008913;28;20029;-90
2023/09/18 06:56:52;;;;;;;22.85;12.93;;;;;;;20.35;100.00;100291.16;4994428;28;20858;-92
2023/09/18 06:59:18;;;;;;;20.75;10.73;;;;;;;20.35;100.00;100291.16;5004289;28;20037;-91
2023/09/18 07:01:44;;;;;;;24.58;10.88;;;;;;;20.39;100.00;100287.09;5015011;28;20029;-90
2023/09/18 07:04:10;;;;;;;20.50;10.70;;;;;;;20.27;100.00;100286.59;4999869;28;20046;-91
2023/09/18 07:06:35;;;;;;;18.35;11.07;;;;;;;20.30;100.00;100294.41;5033550;28;20098;-92
2023/09/18 07:09:04;;;;;;;16.92;9.35;;;;;;;20.34;100.00;100290.34;5015445;28;20177;-91
2023/09/18 07:11:30;;;;;;;16.77;9.30;;;;;;;20.36;100.00;100290.16;5001126;28;20041;-90
2023/09/18 07:14:05;;;;;;;16.02;8.68;;;;;;;20.38;100.00;100299.81;5036396;28;20390;-90
2023/09/18 07:16:31;;;;;;;15.18;8.77;;;;;;;20.28;100.00;100303.69;5015124;28;20038;-92
2023/09/18 07:18:57;;;;;;;17.55;8.95;;;;;;;20.43;100.00;100299.25;5013832;28;20069;-92
2023/09/18 07:21:22;;;;;;;16.60;9.05;;;;;;;20.33;100.00;100301.31;5014741;28;20034;-91
2023/09/18 07:23:51;;;;;;;18.08;9.13;;;;;;;20.41;100.00;100309.44;5021755;28;20503;-92
2023/09/18 07:26:17;;;;;;;19.27;8.30;;;;;;;20.59;100.00;100301.13;4999037;28;20029;-91
2023/09/18 07:28:44;;;;;;;15.95;7.28;;;;;;;20.40;100.00;100295.03;5015710;28;20116;-91
2023/09/18 07:31:12;;;;;;;11.15;7.32;;;;;;;20.33;100.00;100285.94;4999866;28;20065;-92
2023/09/18 07:33:38;;;;;;;17.73;7.93;;;;;;;20.48;100.00;100287.94;5015902;28;20050;-92
2023/09/18 07:36:04;;;;;;;17.35;7.03;;;;;;;20.56;100.00;100304.16;4999825;28;20112;-91
2023/09/18 07:38:33;;;;;;;11.45;6.20;;;;;;;20.55;100.00;100273.53;5024959;28;20677;-89
2023/09/18 07:40:58;;;;;;;13.43;7.25;;;;;;;20.78;100.00;100270.84;5034142;28;20049;-91
2023/09/18 07:43:25;;;;;;;10.65;5.90;;;;;;;20.94;100.00;100272.66;5017107;28;20077;-93
2023/09/18 07:45:54;;;;;;;9.85;6.38;;;;;;;20.94;100.00;100268.06;5008383;28;20034;-91
2023/09/18 07:48:20;;;;;;;8.18;5.25;;;;;;;21.04;100.00;100280.56;4992640;28;20039;-90
2023/09/18 07:50:49;;;;;;;9.90;5.28;;;;;;;21.08;100.00;100293.56;4999640;28;20096;-92
2023/09/18 07:53:15;;;;;;;11.32;4.85;;;;;;;21.17;100.00;100276.22;5038484;28;20034;-88
2023/09/18 07:55:41;;;;;;;10.02;4.78;;;;;;;21.00;100.00;100268.38;5004053;28;20677;-91
2023/09/18 07:58:09;;;;;;;11.27;4.38;;;;;;;21.05;100.00;100283.09;5039899;28;20049;-89
2023/09/18 08:00:35;;;;;;;8.40;4.22;;;;;;;20.80;100.00;100279.66;5005089;28;20846;-91
2023/09/18 08:03:03;;;;;;;8.23;4.10;;;;;;;20.71;100.00;100266.34;5021521;28;20046;-90
2023/09/18 08:05:34;;;;;;;8.82;4.47;;;;;;;20.86;100.00;100272.69;5021099;28;20046;-91
2023/09/18 08:08:00;;;;;;;7.10;3.90;;;;;;;20.94;100.00;100287.06;5038126;28;20034;-91
2023/09/18 08:10:37;;;;;;;7.63;4.13;;;;;;;21.03;100.00;100298.66;5004282;28;20760;-91
2023/09/18 08:13:03;;;;;;;8.73;4.38;;;;;;;20.90;100.00;100293.84;5018196;28;20030;-91
2023/09/18 08:15:30;;;;;;;9.20;3.65;;;;;;;21.13;100.00;100288.44;5010858;28;20049;-91
2023/09/18 08:17:56;;;;;;;4.63;2.90;;;;;;;21.12;100.00;100292.19;5035244;28;20038;-91
2023/09/18 08:20:22;;;;;;;5.43;3.47;;;;;;;21.03;100.00;100290.53;5018090;28;20041;-89
2023/09/18 08:22:49;;;;;;;7.65;3.38;;;;;;;21.21;100.00;100287.56;5034546;28;20125;-91
2023/09/18 08:25:15;;;;;;;8.85;3.35;;;;;;;21.37;100.00;100281.19;5016984;28;20034;-90
2023/09/18 08:27:44;;;;;;;4.38;3.13;;;;;;;21.70;100.00;100285.34;5018028;28;20038;-88
2023/09/18 08:30:11;;;;;;;5.53;3.35;;;;;;;21.66;100.00;100289.44;5015941;28;20037;-93
2023/09/18 08:32:41;;;;;;;4.07;2.75;;;;;;;21.76;100.00;100278.34;5008198;28;20134;-93
2023/09/18 08:35:08;;;;;;;9.85;3.60;;;;;;;21.72;100.00;100279.72;5014966;28;20073;-91
2023/09/18 08:37:34;;;;;;;9.05;3.50;;;;;;;21.50;100.00;100281.44;5006132;28;20022;-90
2023/09/18 08:40:09;;;;;;;6.65;3.72;;;;;;;21.62;100.00;100288.13;5005894;28;20026;-94
2023/09/18 08:42:38;;;;;;;5.93;3.13;;;;;;;21.90;100.00;100284.81;5008408;28;20085;-91
2023/09/18 08:45:09;;;;;;;8.43;3.28;;;;;;;22.01;100.00;100284.38;5030440;28;20030;-91
2023/09/18 08:47:36;;;;;;;6.43;3.03;;;;;;;22.09;100.00;100283.44;5053224;28;20018;-91
2023/09/18 08:50:03;;;;;;;8.30;3.42;;;;;;;22.11;100.00;100290.41;5053497;28;20053;-92
2023/09/18 08:52:30;;;;;;;5.45;3.03;;;;;;;22.04;100.00;100300.31;5035489;28;20041;-91
2023/09/18 08:55:00;;;;;;;8.57;3.38;;;;;;;22.13;100.00;100282.91;5052787;28;20034;-91
2023/09/18 08:57:30;;;;;;;6.90;3.45;;;;;;;22.08;100.00;100281.75;5034625;28;20068;-90
2023/09/18 09:00:03;;;;;;;9.07;3.15;;;;;;;22.06;100.00;100289.25;5016321;28;20094;-92
2023/09/18 09:02:30;;;;;;;8.98;3.30;;;;;;;21.98;100.00;100282.00;5032068;28;20761;-92
2023/09/18 09:04:58;;;;;;;5.18;2.88;;;;;;;22.23;100.00;100294.34;5014547;28;20046;-91
2023/09/18 09:07:28;;;;;;;7.70;3.17;;;;;;;22.32;100.00;100303.25;5030337;28;20070;-90
2023/09/18 09:09:54;;;;;;;6.97;2.90;;;;;;;22.30;100.00;100304.47;5033196;28;20034;-92
2023/09/18 09:12:54;;;;;;;7.05;3.05;;;;;;;22.56;100.00;100310.28;5032718;28;20764;-89
2023/09/18 09:15:21;;;;;;;7.38;3.38;;;;;;;22.52;100.00;100311.69;5026103;28;20046;-93
2023/09/18 09:17:47;;;;;;;7.35;3.55;;;;;;;22.38;100.00;100313.38;5027696;28;20042;-92
2023/09/18 09:20:18;;;;;;;4.78;3.13;;;;;;;22.51;100.00;100304.56;5012578;28;20617;-94
2023/09/18 09:22:44;;;;;;;4.32;3.30;;;;;;;22.11;100.00;100319.44;5008594;28;20043;-91
2023/09/18 09:25:27;;;;;;;6.60;2.63;;;;;;;22.20;100.00;100324.59;5024708;28;20114;-92
2023/09/18 09:27:59;;;;;;;4.57;3.13;;;;;;;22.34;100.00;100312.06;5004244;28;20042;-92
2023/09/18 09:30:33;;;;;;;6.57;3.10;;;;;;;22.26;100.00;100316.75;5011282;28;20034;-92
2023/09/18 09:32:59;;;;;;;4.35;2.70;;;;;;;22.32;100.00;100292.38;5016804;28;20046;-92
2023/09/18 09:35:31;;;;;;;5.18;2.72;;;;;;;22.43;100.00;100297.34;5025972;28;20104;-94
2023/09/18 09:38:01;;;;;;;4.25;2.80;;;;;;;22.09;100.00;100302.44;5004154;28;20033;-92
2023/09/18 09:40:30;;;;;;;10.27;3.08;;;;;;;22.39;100.00;100296.06;5003185;28;20038;-92
2023/09/18 09:43:02;;;;;;;6.25;3.20;;;;;;;22.79;100.00;100287.56;5004014;28;20052;-94
2023/09/18 09:45:29;;;;;;;8.00;3.00;;;;;;;22.73;100.00;100298.16;5019820;28;20025;-91
2023/09/18 09:48:00;;;;;;;5.93;3.22;;;;;;;22.63;100.00;100308.47;5004968;28;20099;-93
2023/09/18 09:50:33;;;;;;;5.63;2.78;;;;;;;22.63;100.00;100313.06;5002191;28;20034;-94
2023/09/18 09:53:00;;;;;;;6.32;2.83;;;;;;;22.89;100.00;100307.16;5031032;28;20033;-94
2023/09/18 09:55:31;;;;;;;5.10;3.00;;;;;;;22.74;100.00;100294.44;5004106;28;20014;-91
2023/09/18 09:57:59;;;;;;;6.22;3.13;;;;;;;23.17;100.00;100299.97;5052769;28;20065;-93
2023/09/18 10:00:43;;;;;;;6.10;2.53;;;;;;;23.17;100.00;100293.69;5002615;28;20061;-93
2023/09/18 10:03:11;;;;;;;8.93;2.92;;;;;;;23.19;100.00;100280.72;4998640;28;20530;-93
2023/09/18 10:05:43;;;;;;;7.47;3.17;;;;;;;23.17;100.00;100289.09;4992764;28;20033;-92
2023/09/18 10:08:22;;;;;;;4.55;2.72;;;;;;;23.12;100.00;100288.81;5002709;28;20030;-93
2023/09/18 10:10:49;;;;;;;5.00;3.20;;;;;;;23.25;100.00;100305.31;5018497;28;20033;-92
2023/09/18 10:13:28;;;;;;;5.65;2.80;;;;;;;23.19;100.00;100310.66;4985052;28;20522;-93
2023/09/18 10:16:00;;;;;;;7.13;2.95;;;;;;;23.35;100.00;100304.16;4990091;28;20045;-91
2023/09/18 10:19:10;;;;;;;9.15;2.95;;;;;;;23.16;100.00;100319.22;4999409;28;20050;-95
2023/09/18 10:22:00;;;;;;;7.20;3.00;;;;;;;23.37;100.00;100319.22;4997942;28;20044;-93
2023/09/18 10:24:33;;;;;;;4.85;2.70;;;;;;;23.40;100.00;100323.47;5006363;28;20555;-95
2023/09/18 10:27:04;;;;;;;9.05;2.67;;;;;;;23.50;100.00;100333.00;4981535;28;20022;-94
2023/09/18 10:29:37;;;;;;;6.15;3.25;;;;;;;23.31;100.00;100330.91;5016889;28;20225;-92
2023/09/18 10:32:10;;;;;;;11.75;3.00;;;;;;;23.30;100.00;100326.50;5034786;28;20097;-91
2023/09/18 10:34:36;;;;;;;6.18;2.95;;;;;;;23.64;100.00;100314.06;4995057;28;20077;-94
2023/09/18 10:37:09;;;;;;;8.60;3.10;;;;;;;23.75;100.00;100316.28;5016738;28;20026;-93
2023/09/18 10:39:39;;;;;;;6.72;2.70;;;;;;;23.91;100.00;100326.06;5016507;28;20038;-94
2023/09/18 10:42:08;;;;;;;6.95;3.45;;;;;;;23.59;100.00;100325.50;5017667;28;20033;-92
2023/09/18 10:44:34;;;;;;;14.10;3.58;;;;;;;23.98;100.00;100332.41;5011732;28;20038;-94
2023/09/18 10:47:03;;;;;;;12.57;3.35;;;;;;;23.91;100.00;100332.34;4999949;28;20076;-92
2023/09/18 10:49:29;;;;;;;10.38;3.65;;;;;;;23.89;100.00;100337.13;5000175;28;20030;-92
2023/09/18 10:51:59;;;;;;;8.43;3.95;;;;;;;23.77;100.00;100339.56;5027134;28;20038;-93
2023/09/18 10:54:31;;;;;;;7.55;3.63;;;;;;;23.60;100.00;100340.84;5016579;28;20087;-90
2023/09/18 10:56:58;;;;;;;8.40;3.67;;;;;;;23.63;100.00;100335.00;5016963;28;20064;-90
2023/09/18 10:59:27;;;;;;;8.75;3.30;;;;;;;23.58;100.00;100342.06;5000037;28;20887;-93
2023/09/18 11:01:53;;;;;;;13.82;4.13;;;;;;;23.58;100.00;100334.72;5016473;28;20038;-94
2023/09/18 11:04:23;;;;;;;6.40;3.58;;;;;;;23.83;100.00;100331.63;5001617;28;20145;-92
2023/09/18 11:06:59;;;;;;;6.90;3.33;;;;;;;23.95;100.00;100340.97;5001054;28;20037;-94
2023/09/18 11:09:28;;;;;;;14.38;4.25;;;;;;;24.14;100.00;100328.53;5024807;28;20045;-90
2023/09/18 11:12:02;;;;;;;11.05;3.38;;;;;;;24.34;100.00;100326.78;4998231;28;20030;-92